Weather History for Altus, OK

Change the Weather History Date:

Wednesday, December 12, 2012

  Actual Average (KLTS) Record (KLTS)
Temperature  
Mean Temperature 41 °F -  
Max Temperature 59 °F 52 °F 66 °F (2006)
Min Temperature 23 °F 27 °F 15 °F (2000)
Degree Days  
Heating Degree Days 24    
Moisture  
Dew Point 16 °F    
Average Humidity 42    
Maximum Humidity 64    
Minimum Humidity 20    
Precipitation  
Precipitation 0.00 in - - ()
Sea Level Pressure  
Sea Level Pressure 30.15 in    
Wind  
Wind Speed 9 mph (SE)    
Max Wind Speed 23 mph    
Max Gust Speed 29 mph    
Visibility 10 miles    
Events      
Averages and records for this station are not official NWS values.
T = Trace of Precipitation, MM = Missing Value Source: NWS Daily Summary

Daily Weather History Graph

Daily Weather History Graph

Search for Another Location

Airport:

Trip Planner

Search our weather history database for the weather conditions in past years. The results will help you decide how hot, cold, wet, or windy it might be!

Date:

Astronomy

Dec. 12, 2012 Rise Set
Actual Time 7:35 AM CST 5:27 PM CST
Civil Twilight 7:07 AM CST 5:55 PM CST
Nautical Twilight 6:36 AM CST 6:26 PM CST
Astronomical Twilight 6:05 AM CST 6:57 PM CST
Moon 6:42 AM CST (12/12) 5:05 PM CST (12/12)
Length of Visible Light 10h 47m
Length of Day
9h 51m
Waning Crescent, 1% of the Moon is Illuminated
Dec 12
Waning Crescent
Dec 13
New
Dec 19
First Quarter
Dec 28
Full
Jan 4
Last Quarter

Hourly Weather History & Observations

Time (CST) Temp. Windchill Dew Point Humidity Pressure Visibility Wind Dir Wind Speed Gust Speed Precip Events Conditions
12:15 AM 30.2 °F 24.3 °F 14.0 °F 51% 30.19 in 10.0 mi SE 5.8 mph - N/A   Clear
12:35 AM 30.2 °F 24.3 °F 14.0 °F 51% 30.19 in 10.0 mi SE 5.8 mph - N/A   Clear
12:55 AM 30.2 °F 23.4 °F 14.0 °F 51% 30.18 in 10.0 mi SE 6.9 mph - N/A   Clear
1:15 AM 30.2 °F 23.4 °F 14.0 °F 51% 30.18 in 10.0 mi SE 6.9 mph - N/A   Clear
1:35 AM 30.2 °F 23.4 °F 14.0 °F 51% 30.18 in 10.0 mi SE 6.9 mph - N/A   Clear
1:55 AM 28.4 °F 23.3 °F 14.0 °F 55% 30.18 in 10.0 mi SE 4.6 mph - N/A   Clear
2:15 AM 28.4 °F 22.2 °F 14.0 °F 55% 30.19 in 10.0 mi SE 5.8 mph - N/A   Clear
2:35 AM 28.4 °F 22.2 °F 14.0 °F 55% 30.19 in 10.0 mi SE 5.8 mph - N/A   Clear
2:55 AM 26.6 °F 20.0 °F 14.0 °F 59% 30.19 in 10.0 mi ESE 5.8 mph - N/A   Clear
3:15 AM 26.6 °F 20.0 °F 12.2 °F 55% 30.18 in 10.0 mi ESE 5.8 mph - N/A   Clear
3:35 AM 26.6 °F 19.1 °F 14.0 °F 59% 30.18 in 10.0 mi ESE 6.9 mph - N/A   Clear
3:55 AM 24.8 °F 17.9 °F 14.0 °F 64% 30.18 in 10.0 mi ESE 5.8 mph - N/A   Clear
4:15 AM 26.6 °F 18.2 °F 14.0 °F 59% 30.18 in 10.0 mi ESE 8.1 mph - N/A   Clear
4:35 AM 26.6 °F 19.1 °F 14.0 °F 59% 30.18 in 10.0 mi ESE 6.9 mph - N/A   Clear
4:55 AM 26.6 °F 19.1 °F 14.0 °F 59% 30.17 in 10.0 mi ESE 6.9 mph - N/A   Clear
5:15 AM 26.6 °F 20.0 °F 14.0 °F 59% 30.18 in 10.0 mi ESE 5.8 mph - N/A   Clear
5:35 AM 26.6 °F 18.2 °F 12.2 °F 55% 30.18 in 10.0 mi ESE 8.1 mph - N/A   Clear
6:15 AM 26.6 °F 17.5 °F 12.2 °F 55% 30.18 in 10.0 mi ESE 9.2 mph - N/A   Clear
6:35 AM 23.0 °F 14.7 °F 12.2 °F 63% 30.18 in 10.0 mi ESE 6.9 mph - N/A   Clear
6:55 AM 24.8 °F 16.9 °F 12.2 °F 59% 30.19 in 10.0 mi ESE 6.9 mph - N/A   Clear
7:15 AM 23.0 °F 15.8 °F 12.2 °F 63% 30.20 in 10.0 mi ESE 5.8 mph - N/A   Clear
7:35 AM 24.8 °F 16.1 °F 14.0 °F 64% 30.21 in 10.0 mi SE 8.1 mph - N/A   Clear
7:55 AM 26.6 °F 18.2 °F 14.0 °F 59% 30.21 in 10.0 mi ESE 8.1 mph - N/A   Clear
8:15 AM 26.6 °F 20.0 °F 14.0 °F 59% 30.21 in 10.0 mi ESE 5.8 mph - N/A   Clear
8:35 AM 28.4 °F 21.2 °F 14.0 °F 55% 30.21 in 10.0 mi SE 6.9 mph - N/A   Clear
8:55 AM 30.2 °F 21.9 °F 15.8 °F 55% 30.21 in 10.0 mi SE 9.2 mph - N/A   Clear
9:15 AM 32.0 °F 24.2 °F 15.8 °F 51% 30.21 in 10.0 mi SE 9.2 mph - N/A   Clear
9:35 AM 35.6 °F 28.0 °F 14.0 °F 41% 30.21 in 10.0 mi SSE 10.4 mph - N/A   Clear
9:55 AM 35.6 °F 27.5 °F 14.0 °F 41% 30.21 in 10.0 mi SSE 11.5 mph - N/A   Clear
10:15 AM 39.2 °F 32.0 °F 14.0 °F 36% 30.21 in 10.0 mi SSE 11.5 mph - N/A   Clear
10:55 AM 44.6 °F 37.4 °F 15.8 °F 31% 30.20 in 10.0 mi South 16.1 mph - N/A   Clear
11:15 AM 44.6 °F 38.1 °F 15.8 °F 31% 30.19 in 10.0 mi SSE 13.8 mph - N/A   Clear
11:35 AM 46.4 °F 40.4 °F 17.6 °F 32% 30.19 in 10.0 mi South 13.8 mph 19.6 mph N/A   Clear
11:55 AM 50.0 °F - 17.6 °F 28% 30.18 in 10.0 mi South 15.0 mph 19.6 mph N/A   Clear
12:15 PM 51.8 °F - 17.6 °F 26% 30.17 in 10.0 mi South 18.4 mph 21.9 mph N/A   Clear
12:55 PM 53.6 °F - 17.6 °F 24% 30.14 in 10.0 mi South 18.4 mph 23.0 mph N/A   Clear
1:15 PM 53.6 °F - 17.6 °F 24% 30.12 in 10.0 mi SSE 18.4 mph 24.2 mph N/A   Clear
1:55 PM 55.4 °F - 17.6 °F 23% 30.09 in 10.0 mi South 18.4 mph - N/A   Clear
2:15 PM 57.2 °F - 17.6 °F 21% 30.08 in 10.0 mi South 23.0 mph - N/A   Clear
2:35 PM 59.0 °F - 17.6 °F 20% 30.07 in 10.0 mi South 18.4 mph 28.8 mph N/A   Clear
2:55 PM 59.0 °F - 17.6 °F 20% 30.07 in 10.0 mi South 18.4 mph 24.2 mph N/A   Clear
3:15 PM 59.0 °F - 17.6 °F 20% 30.07 in 10.0 mi South 20.7 mph 28.8 mph N/A   Clear
3:35 PM 59.0 °F - 17.6 °F 20% 30.07 in 10.0 mi SSE 18.4 mph - N/A   Clear
3:55 PM 59.0 °F - 17.6 °F 20% 30.06 in 10.0 mi SSE 16.1 mph - N/A   Clear
4:15 PM 59.0 °F - 17.6 °F 20% 30.06 in 10.0 mi SSE 20.7 mph - N/A   Clear
4:35 PM 59.0 °F - 17.6 °F 20% 30.07 in 10.0 mi SSE 16.1 mph - N/A   Clear
4:55 PM 57.2 °F - 17.6 °F 21% 30.06 in 10.0 mi SSE 12.7 mph - N/A   Clear
5:15 PM 55.4 °F - 19.4 °F 25% 30.06 in 10.0 mi SE 12.7 mph - N/A   Clear
5:35 PM 53.6 °F - 19.4 °F 26% 30.06 in 10.0 mi SE 12.7 mph - N/A   Clear
5:55 PM 51.8 °F - 19.4 °F 28% 30.06 in 10.0 mi SE 12.7 mph - N/A   Clear
6:55 PM 48.2 °F - 19.4 °F 32% 30.08 in 10.0 mi SE 12.7 mph - N/A   Clear
7:15 PM 48.2 °F - 19.4 °F 32% 30.09 in 10.0 mi SE 16.1 mph - N/A   Clear
7:55 PM 46.4 °F 40.4 °F 19.4 °F 34% 30.09 in 10.0 mi SE 13.8 mph - N/A   Clear
8:15 PM 46.4 °F 40.7 °F 19.4 °F 34% 30.10 in 10.0 mi SE 12.7 mph - N/A   Clear
8:35 PM 44.6 °F 38.4 °F 19.4 °F 37% 30.10 in 10.0 mi SE 12.7 mph - N/A   Clear
8:55 PM 42.8 °F 37.0 °F 19.4 °F 39% 30.11 in 10.0 mi ESE 10.4 mph - N/A   Clear
9:15 PM 42.8 °F 37.5 °F 19.4 °F 39% 30.11 in 10.0 mi SE 9.2 mph - N/A   Clear
9:35 PM 41.0 °F 34.7 °F 19.4 °F 42% 30.11 in 10.0 mi SE 10.4 mph - N/A   Clear
9:55 PM 41.0 °F 34.7 °F 19.4 °F 42% 30.12 in 10.0 mi SE 10.4 mph - N/A   Clear
10:15 PM 41.0 °F 33.5 °F 19.4 °F 42% 30.12 in 10.0 mi SE 13.8 mph - N/A   Clear
10:35 PM 41.0 °F 33.9 °F 19.4 °F 42% 30.12 in 10.0 mi SE 12.7 mph - N/A   Clear
10:55 PM 41.0 °F 34.3 °F 19.4 °F 42% 30.13 in 10.0 mi SE 11.5 mph - N/A   Clear
11:15 PM 39.2 °F 31.6 °F 19.4 °F 45% 30.13 in 10.0 mi SE 12.7 mph - N/A   Clear
11:35 PM 39.2 °F 32.5 °F 19.4 °F 45% 30.14 in 10.0 mi SE 10.4 mph - N/A   Clear
11:55 PM 37.4 °F 30.3 °F 19.4 °F 48% 30.14 in 10.0 mi SE 10.4 mph - N/A   Clear